Toronado — WDD6167 — position and weather

sailwx.info

Track history (hours):
 
Tides and Currents Weather Stations Pressure Air Temp Water Temp Dewpoint Dewpoint Depression Visibility Wind Speed Wind Dir Waves Ship Positions

Toronado

Owner: Toronado Sportfishing, Long Beach, CA. More information available from US FCC via Universal Licensing System and Coast Guard Vessel Documentation Center.

Last reported at 2018-Feb-06 19:11 UTC. Time now 2018-Feb-19 04:08 UTC.
Position N 33°46' W 118°12'.
Warning: this ship's position is 12 days out of date.

Length 22 m.

Type: Fishing. MMSI: 367169120.

Date/timePositionNaut miles runAvg speedWind from/ knotsBaromVisibWave heightAir tempDewpointWater temp
2018-Feb-06 19:11N 33°46' W 118°12'1 4.0
2018-Feb-06 19:00N 33°45' W 118°11'1 1.4
2018-Feb-06 18:30N 33°46' W 118°12'0 0.0
2018-Feb-06 18:00N 33°46' W 118°12'0 0.0
2018-Feb-06 17:30N 33°46' W 118°12'0 0.0
2018-Feb-06 17:00N 33°46' W 118°12'0 0.0
2018-Feb-06 16:30N 33°46' W 118°12'  
2018-Feb-01 19:30N 33°46' W 118°12'0 0.0
2018-Feb-01 19:00N 33°46' W 118°12'3 5.2
2018-Feb-01 18:30N 33°43' W 118°13'3 5.1
2018-Feb-01 18:00N 33°44' W 118°16'0 0.0
2018-Feb-01 17:30N 33°44' W 118°16'0 0.2
2018-Feb-01 17:00N 33°44' W 118°16'  
2018-Jan-29 15:30N 33°44' W 118°16'4 7.7
2018-Jan-29 15:00N 33°44' W 118°11'2 3.4
2018-Jan-29 14:26N 33°46' W 118°12'0 0.0
2018-Jan-29 14:00N 33°46' W 118°12'0 0.0
2018-Jan-29 13:28N 33°46' W 118°12'0 0.0
2018-Jan-29 12:54N 33°46' W 118°12'0 0.0
2018-Jan-29 12:26N 33°46' W 118°12'  
Track history (hours):
 
Tides and Currents Weather Stations Pressure Air Temp Water Temp Dewpoint Dewpoint Depression Visibility Wind Speed Wind Dir Waves Ship Positions

Toronado

Owner: Toronado Sportfishing, Long Beach, CA. More information available from US FCC via Universal Licensing System and Coast Guard Vessel Documentation Center.

Last reported at 2018-Feb-06 19:11 UTC. Time now 2018-Feb-19 04:08 UTC.
Position N 33°46' W 118°12'.
Warning: this ship's position is 12 days out of date.

Length 22 m.

Type: Fishing. MMSI: 367169120.

Date/timePositionNaut miles runAvg speedWind from/ knotsBaromVisibWave heightAir tempDewpointWater temp
2018-Feb-06 19:11N 33°46' W 118°12'1 4.0
2018-Feb-06 19:00N 33°45' W 118°11'1 1.4
2018-Feb-06 18:30N 33°46' W 118°12'0 0.0
2018-Feb-06 18:00N 33°46' W 118°12'0 0.0
2018-Feb-06 17:30N 33°46' W 118°12'0 0.0
2018-Feb-06 17:00N 33°46' W 118°12'0 0.0
2018-Feb-06 16:30N 33°46' W 118°12'  
2018-Feb-01 19:30N 33°46' W 118°12'0 0.0
2018-Feb-01 19:00N 33°46' W 118°12'3 5.2
2018-Feb-01 18:30N 33°43' W 118°13'3 5.1
2018-Feb-01 18:00N 33°44' W 118°16'0 0.0
2018-Feb-01 17:30N 33°44' W 118°16'0 0.2
2018-Feb-01 17:00N 33°44' W 118°16'  
2018-Jan-29 15:30N 33°44' W 118°16'4 7.7
2018-Jan-29 15:00N 33°44' W 118°11'2 3.4
2018-Jan-29 14:26N 33°46' W 118°12'0 0.0
2018-Jan-29 14:00N 33°46' W 118°12'0 0.0
2018-Jan-29 13:28N 33°46' W 118°12'0 0.0
2018-Jan-29 12:54N 33°46' W 118°12'0 0.0
2018-Jan-29 12:26N 33°46' W 118°12'  

Dump ship's entire track history